sensor_id;sensor_type;location;lat;lon;timestamp;pressure;altitude;pressure_sealevel;temperature;humidity
73936;BME280;62287;50.858;0.252;2023-06-22T00:00:27;101709.37;;;21.35;40.59
73936;BME280;62287;50.858;0.252;2023-06-22T00:00:59;101709.58;;;21.47;40.56
73936;BME280;62287;50.858;0.252;2023-06-22T00:01:30;101708.79;;;20.84;40.61
73936;BME280;62287;50.858;0.252;2023-06-22T00:02:01;101706.43;;;21.16;40.43
73936;BME280;62287;50.858;0.252;2023-06-22T00:02:32;101704.38;;;21.10;40.37
73936;BME280;62287;50.858;0.252;2023-06-22T00:03:02;101704.12;;;21.52;40.32
73936;BME280;62287;50.858;0.252;2023-06-22T00:03:33;101701.91;;;21.22;40.28
73936;BME280;62287;50.858;0.252;2023-06-22T00:04:04;101697.66;;;21.19;40.35
73936;BME280;62287;50.858;0.252;2023-06-22T00:04:35;101698.33;;;21.18;40.33
73936;BME280;62287;50.858;0.252;2023-06-22T00:05:07;101696.45;;;21.97;40.34
73936;BME280;62287;50.858;0.252;2023-06-22T00:05:37;101695.35;;;21.20;40.35
73936;BME280;62287;50.858;0.252;2023-06-22T00:06:08;101694.62;;;21.26;40.52
73936;BME280;62287;50.858;0.252;2023-06-22T00:06:39;101694.05;;;21.84;40.35
73936;BME280;62287;50.858;0.252;2023-06-22T00:07:10;101692.10;;;21.96;40.55
73936;BME280;62287;50.858;0.252;2023-06-22T00:07:41;101693.24;;;21.02;40.66
73936;BME280;62287;50.858;0.252;2023-06-22T00:08:12;101689.98;;;21.02;40.57
73936;BME280;62287;50.858;0.252;2023-06-22T00:08:44;101689.11;;;21.01;40.54
73936;BME280;62287;50.858;0.252;2023-06-22T00:09:15;101687.11;;;20.85;40.94
73936;BME280;62287;50.858;0.252;2023-06-22T00:09:46;101684.84;;;20.90;40.98
73936;BME280;62287;50.858;0.252;2023-06-22T00:10:17;101686.23;;;21.22;40.93
73936;BME280;62287;50.858;0.252;2023-06-22T00:10:48;101688.00;;;21.35;40.79
73936;BME280;62287;50.858;0.252;2023-06-22T00:11:19;101685.09;;;21.21;40.96
73936;BME280;62287;50.858;0.252;2023-06-22T00:11:50;101688.15;;;21.29;40.88
73936;BME280;62287;50.858;0.252;2023-06-22T00:12:21;101687.96;;;20.71;41.09
73936;BME280;62287;50.858;0.252;2023-06-22T00:12:52;101689.19;;;21.14;41.17
73936;BME280;62287;50.858;0.252;2023-06-22T00:13:22;101690.91;;;21.11;41.26
73936;BME280;62287;50.858;0.252;2023-06-22T00:13:53;101690.35;;;21.12;41.16
73936;BME280;62287;50.858;0.252;2023-06-22T00:14:24;101688.97;;;21.26;41.00
73936;BME280;62287;50.858;0.252;2023-06-22T00:14:55;101695.00;;;20.89;41.01
73936;BME280;62287;50.858;0.252;2023-06-22T00:15:27;101693.94;;;21.49;40.94
73936;BME280;62287;50.858;0.252;2023-06-22T00:15:58;101693.96;;;21.11;40.76
73936;BME280;62287;50.858;0.252;2023-06-22T00:16:29;101696.46;;;21.84;40.60
73936;BME280;62287;50.858;0.252;2023-06-22T00:17:00;101696.93;;;21.19;40.68
73936;BME280;62287;50.858;0.252;2023-06-22T00:17:31;101699.02;;;21.29;40.75
73936;BME280;62287;50.858;0.252;2023-06-22T00:18:02;101700.51;;;20.89;41.01
73936;BME280;62287;50.858;0.252;2023-06-22T00:18:33;101700.55;;;20.89;41.10
73936;BME280;62287;50.858;0.252;2023-06-22T00:19:04;101701.97;;;20.97;40.91
73936;BME280;62287;50.858;0.252;2023-06-22T00:19:35;101699.24;;;20.97;40.82
73936;BME280;62287;50.858;0.252;2023-06-22T00:20:08;101699.48;;;21.34;40.63
73936;BME280;62287;50.858;0.252;2023-06-22T00:20:39;101701.72;;;21.27;40.52
73936;BME280;62287;50.858;0.252;2023-06-22T00:21:10;101701.28;;;21.43;40.47
73936;BME280;62287;50.858;0.252;2023-06-22T00:21:41;101697.72;;;21.72;40.32
73936;BME280;62287;50.858;0.252;2023-06-22T00:22:12;101699.15;;;21.55;40.35
73936;BME280;62287;50.858;0.252;2023-06-22T00:22:44;101699.62;;;21.37;40.48
73936;BME280;62287;50.858;0.252;2023-06-22T00:23:15;101699.66;;;20.89;40.61
73936;BME280;62287;50.858;0.252;2023-06-22T00:23:46;101700.84;;;21.28;40.48
73936;BME280;62287;50.858;0.252;2023-06-22T00:24:17;101700.17;;;21.31;40.46
73936;BME280;62287;50.858;0.252;2023-06-22T00:24:48;101700.33;;;21.21;40.74
73936;BME280;62287;50.858;0.252;2023-06-22T00:25:19;101699.54;;;21.31;40.60
73936;BME280;62287;50.858;0.252;2023-06-22T00:25:50;101699.68;;;21.34;40.49
73936;BME280;62287;50.858;0.252;2023-06-22T00:26:21;101700.22;;;21.30;40.48
73936;BME280;62287;50.858;0.252;2023-06-22T00:26:52;101699.30;;;21.35;40.46
73936;BME280;62287;50.858;0.252;2023-06-22T00:27:23;101697.81;;;21.72;40.41
73936;BME280;62287;50.858;0.252;2023-06-22T00:27:54;101696.63;;;21.18;40.54
73936;BME280;62287;50.858;0.252;2023-06-22T00:28:25;101697.44;;;21.58;40.40
73936;BME280;62287;50.858;0.252;2023-06-22T00:28:56;101695.62;;;21.30;40.27
73936;BME280;62287;50.858;0.252;2023-06-22T00:29:27;101695.62;;;21.27;40.25
73936;BME280;62287;50.858;0.252;2023-06-22T00:29:58;101693.23;;;21.11;40.47
73936;BME280;62287;50.858;0.252;2023-06-22T00:30:30;101690.19;;;21.15;40.42
73936;BME280;62287;50.858;0.252;2023-06-22T00:31:02;101690.57;;;21.11;40.46
73936;BME280;62287;50.858;0.252;2023-06-22T00:31:33;101691.08;;;21.38;40.57
73936;BME280;62287;50.858;0.252;2023-06-22T00:32:05;101689.74;;;20.92;40.66
73936;BME280;62287;50.858;0.252;2023-06-22T00:32:36;101690.78;;;20.99;40.83
73936;BME280;62287;50.858;0.252;2023-06-22T00:33:07;101689.84;;;20.92;40.87
73936;BME280;62287;50.858;0.252;2023-06-22T00:33:38;101690.06;;;21.50;41.02
73936;BME280;62287;50.858;0.252;2023-06-22T00:34:09;101688.74;;;20.71;40.86
73936;BME280;62287;50.858;0.252;2023-06-22T00:34:39;101688.67;;;20.66;41.01
73936;BME280;62287;50.858;0.252;2023-06-22T00:35:11;101687.89;;;20.71;40.95
73936;BME280;62287;50.858;0.252;2023-06-22T00:35:43;101686.40;;;20.63;41.05
73936;BME280;62287;50.858;0.252;2023-06-22T00:36:14;101687.30;;;20.58;41.14
73936;BME280;62287;50.858;0.252;2023-06-22T00:36:44;101689.24;;;20.73;41.00
73936;BME280;62287;50.858;0.252;2023-06-22T00:37:15;101686.61;;;20.39;41.31
73936;BME280;62287;50.858;0.252;2023-06-22T00:37:46;101686.16;;;20.44;41.20
73936;BME280;62287;50.858;0.252;2023-06-22T00:38:17;101687.07;;;20.48;41.11
73936;BME280;62287;50.858;0.252;2023-06-22T00:38:48;101687.28;;;20.36;41.06
73936;BME280;62287;50.858;0.252;2023-06-22T00:39:19;101687.37;;;20.29;41.18
73936;BME280;62287;50.858;0.252;2023-06-22T00:39:50;101687.78;;;20.33;41.00
73936;BME280;62287;50.858;0.252;2023-06-22T00:40:21;101687.05;;;20.48;41.09
73936;BME280;62287;50.858;0.252;2023-06-22T00:40:52;101688.35;;;20.14;41.29
73936;BME280;62287;50.858;0.252;2023-06-22T00:41:23;101687.75;;;20.26;41.20
73936;BME280;62287;50.858;0.252;2023-06-22T00:41:55;101689.29;;;20.08;41.29
73936;BME280;62287;50.858;0.252;2023-06-22T00:42:25;101690.50;;;20.49;41.46
73936;BME280;62287;50.858;0.252;2023-06-22T00:42:57;101689.89;;;20.54;41.44
73936;BME280;62287;50.858;0.252;2023-06-22T00:43:28;101688.65;;;20.15;41.56
73936;BME280;62287;50.858;0.252;2023-06-22T00:43:58;101689.14;;;20.21;41.47
73936;BME280;62287;50.858;0.252;2023-06-22T00:44:29;101690.77;;;20.18;41.58
73936;BME280;62287;50.858;0.252;2023-06-22T00:45:00;101691.49;;;20.27;41.64
73936;BME280;62287;50.858;0.252;2023-06-22T00:45:31;101691.99;;;20.12;41.63
73936;BME280;62287;50.858;0.252;2023-06-22T00:46:02;101689.46;;;21.18;41.38
73936;BME280;62287;50.858;0.252;2023-06-22T00:46:33;101690.54;;;20.20;41.54
73936;BME280;62287;50.858;0.252;2023-06-22T00:47:05;101691.09;;;21.15;41.51
73936;BME280;62287;50.858;0.252;2023-06-22T00:47:36;101690.73;;;20.25;41.57
73936;BME280;62287;50.858;0.252;2023-06-22T00:48:08;101692.04;;;20.57;41.47
73936;BME280;62287;50.858;0.252;2023-06-22T00:48:40;101690.55;;;20.70;41.72
73936;BME280;62287;50.858;0.252;2023-06-22T00:49:12;101691.62;;;20.17;41.56
73936;BME280;62287;50.858;0.252;2023-06-22T00:49:43;101693.27;;;20.98;41.30
73936;BME280;62287;50.858;0.252;2023-06-22T00:50:19;101693.13;;;20.44;41.30
73936;BME280;62287;50.858;0.252;2023-06-22T00:50:50;101695.38;;;20.37;41.30
73936;BME280;62287;50.858;0.252;2023-06-22T00:51:21;101697.20;;;20.99;41.37
73936;BME280;62287;50.858;0.252;2023-06-22T00:51:52;101697.13;;;20.24;41.51
73936;BME280;62287;50.858;0.252;2023-06-22T00:52:24;101697.59;;;20.07;41.36
73936;BME280;62287;50.858;0.252;2023-06-22T00:52:57;101699.79;;;20.55;41.37
73936;BME280;62287;50.858;0.252;2023-06-22T00:53:29;101700.49;;;20.59;41.28
73936;BME280;62287;50.858;0.252;2023-06-22T00:54:00;101701.54;;;20.40;41.64
73936;BME280;62287;50.858;0.252;2023-06-22T00:54:31;101699.33;;;20.69;41.50
73936;BME280;62287;50.858;0.252;2023-06-22T00:55:03;101699.26;;;20.61;41.26
73936;BME280;62287;50.858;0.252;2023-06-22T00:55:36;101700.12;;;20.18;41.33
73936;BME280;62287;50.858;0.252;2023-06-22T00:56:07;101700.91;;;20.34;41.24
73936;BME280;62287;50.858;0.252;2023-06-22T00:56:39;101696.66;;;19.93;41.23
73936;BME280;62287;50.858;0.252;2023-06-22T00:57:12;101698.12;;;20.45;41.30
73936;BME280;62287;50.858;0.252;2023-06-22T00:57:43;101697.52;;;20.11;41.33
73936;BME280;62287;50.858;0.252;2023-06-22T00:58:15;101698.02;;;20.70;41.26
73936;BME280;62287;50.858;0.252;2023-06-22T00:58:46;101696.74;;;20.02;41.28
73936;BME280;62287;50.858;0.252;2023-06-22T00:59:17;101697.17;;;20.59;41.24
73936;BME280;62287;50.858;0.252;2023-06-22T00:59:48;101697.96;;;21.04;41.08
73936;BME280;62287;50.858;0.252;2023-06-22T01:00:19;101697.78;;;20.84;40.98
73936;BME280;62287;50.858;0.252;2023-06-22T01:00:52;101700.13;;;20.23;41.15
73936;BME280;62287;50.858;0.252;2023-06-22T01:01:22;101696.99;;;20.93;41.08
73936;BME280;62287;50.858;0.252;2023-06-22T01:01:54;101699.89;;;21.04;41.05
73936;BME280;62287;50.858;0.252;2023-06-22T01:02:25;101697.18;;;20.87;41.20
73936;BME280;62287;50.858;0.252;2023-06-22T01:02:56;101697.59;;;20.35;41.07
73936;BME280;62287;50.858;0.252;2023-06-22T01:03:28;101696.61;;;20.77;41.04
73936;BME280;62287;50.858;0.252;2023-06-22T01:03:59;101696.28;;;20.25;41.07
73936;BME280;62287;50.858;0.252;2023-06-22T01:04:35;101695.83;;;20.83;40.93
73936;BME280;62287;50.858;0.252;2023-06-22T01:05:07;101694.97;;;21.18;40.83
73936;BME280;62287;50.858;0.252;2023-06-22T01:05:39;101695.15;;;20.57;40.46
73936;BME280;62287;50.858;0.252;2023-06-22T01:06:16;101697.07;;;21.33;40.12
73936;BME280;62287;50.858;0.252;2023-06-22T01:06:54;101694.98;;;20.23;39.99
73936;BME280;62287;50.858;0.252;2023-06-22T01:07:34;101694.46;;;20.72;39.68
73936;BME280;62287;50.858;0.252;2023-06-22T01:08:15;101695.16;;;20.26;39.52
73936;BME280;62287;50.858;0.252;2023-06-22T01:08:53;101692.21;;;20.34;39.91
73936;BME280;62287;50.858;0.252;2023-06-22T01:09:31;101692.89;;;19.79;40.18
73936;BME280;62287;50.858;0.252;2023-06-22T01:10:08;101691.64;;;19.92;40.45
73936;BME280;62287;50.858;0.252;2023-06-22T01:10:46;101691.09;;;20.25;40.57
73936;BME280;62287;50.858;0.252;2023-06-22T01:11:23;101691.84;;;20.54;40.56
73936;BME280;62287;50.858;0.252;2023-06-22T01:12:01;101689.24;;;20.65;40.62
73936;BME280;62287;50.858;0.252;2023-06-22T01:12:36;101690.46;;;20.18;40.57
73936;BME280;62287;50.858;0.252;2023-06-22T01:13:18;101691.05;;;20.03;40.50
73936;BME280;62287;50.858;0.252;2023-06-22T01:13:58;101688.80;;;20.69;40.60
73936;BME280;62287;50.858;0.252;2023-06-22T01:14:35;101690.46;;;20.64;40.57
73936;BME280;62287;50.858;0.252;2023-06-22T01:15:11;101690.37;;;19.96;40.58
73936;BME280;62287;50.858;0.252;2023-06-22T01:15:48;101689.17;;;19.80;40.60
73936;BME280;62287;50.858;0.252;2023-06-22T01:16:25;101688.14;;;20.25;40.59
73936;BME280;62287;50.858;0.252;2023-06-22T01:16:57;101689.26;;;19.94;40.68
73936;BME280;62287;50.858;0.252;2023-06-22T01:17:31;101688.01;;;20.60;40.49
73936;BME280;62287;50.858;0.252;2023-06-22T01:18:04;101688.47;;;19.71;40.53
73936;BME280;62287;50.858;0.252;2023-06-22T01:18:36;101688.46;;;19.62;40.58
73936;BME280;62287;50.858;0.252;2023-06-22T01:19:24;101687.32;;;20.50;40.65
73936;BME280;62287;50.858;0.252;2023-06-22T01:20:00;101688.21;;;19.83;40.60
73936;BME280;62287;50.858;0.252;2023-06-22T01:20:34;101689.87;;;20.18;40.48
73936;BME280;62287;50.858;0.252;2023-06-22T01:21:06;101689.20;;;20.63;40.49
73936;BME280;62287;50.858;0.252;2023-06-22T01:21:38;101689.24;;;20.73;40.34
73936;BME280;62287;50.858;0.252;2023-06-22T01:22:10;101688.93;;;20.59;40.43
73936;BME280;62287;50.858;0.252;2023-06-22T01:22:55;101689.85;;;20.74;40.25
73936;BME280;62287;50.858;0.252;2023-06-22T01:23:33;101691.22;;;19.81;40.34
73936;BME280;62287;50.858;0.252;2023-06-22T01:24:16;101694.11;;;20.54;40.14
73936;BME280;62287;50.858;0.252;2023-06-22T01:24:57;101693.53;;;20.84;40.05
73936;BME280;62287;50.858;0.252;2023-06-22T01:25:37;101696.08;;;20.98;40.05
73936;BME280;62287;50.858;0.252;2023-06-22T01:26:18;101695.97;;;20.29;40.15
73936;BME280;62287;50.858;0.252;2023-06-22T01:26:59;101697.81;;;20.88;39.81
73936;BME280;62287;50.858;0.252;2023-06-22T01:27:39;101697.29;;;21.23;39.72
73936;BME280;62287;50.858;0.252;2023-06-22T01:28:23;101699.81;;;20.38;39.92
73936;BME280;62287;50.858;0.252;2023-06-22T01:28:57;101698.14;;;20.65;40.12
73936;BME280;62287;50.858;0.252;2023-06-22T01:29:30;101698.19;;;20.96;40.24
73936;BME280;62287;50.858;0.252;2023-06-22T01:30:05;101699.11;;;20.46;40.16
73936;BME280;62287;50.858;0.252;2023-06-22T01:30:37;101699.74;;;20.58;40.22
73936;BME280;62287;50.858;0.252;2023-06-22T01:31:09;101697.99;;;20.43;40.19
73936;BME280;62287;50.858;0.252;2023-06-22T01:31:42;101699.99;;;20.15;40.34
73936;BME280;62287;50.858;0.252;2023-06-22T01:32:15;101701.30;;;19.51;40.68
73936;BME280;62287;50.858;0.252;2023-06-22T01:32:47;101699.43;;;20.51;40.57
73936;BME280;62287;50.858;0.252;2023-06-22T01:33:19;101699.67;;;20.65;40.41
73936;BME280;62287;50.858;0.252;2023-06-22T01:33:54;101699.59;;;19.98;40.38
73936;BME280;62287;50.858;0.252;2023-06-22T01:34:27;101699.36;;;20.75;40.41
73936;BME280;62287;50.858;0.252;2023-06-22T01:35:01;101699.05;;;20.81;40.27
73936;BME280;62287;50.858;0.252;2023-06-22T01:35:33;101697.96;;;20.34;40.28
73936;BME280;62287;50.858;0.252;2023-06-22T01:36:05;101701.14;;;20.78;40.14
73936;BME280;62287;50.858;0.252;2023-06-22T01:36:38;101702.74;;;21.13;40.06
73936;BME280;62287;50.858;0.252;2023-06-22T01:37:10;101702.13;;;20.84;40.17
73936;BME280;62287;50.858;0.252;2023-06-22T01:37:41;101701.56;;;20.97;40.16
73936;BME280;62287;50.858;0.252;2023-06-22T01:38:12;101701.59;;;20.35;39.96
73936;BME280;62287;50.858;0.252;2023-06-22T01:38:45;101701.36;;;21.20;39.76
73936;BME280;62287;50.858;0.252;2023-06-22T01:39:17;101701.86;;;21.30;39.67
73936;BME280;62287;50.858;0.252;2023-06-22T01:39:48;101702.38;;;21.25;39.87
73936;BME280;62287;50.858;0.252;2023-06-22T01:40:21;101704.15;;;21.21;40.04
73936;BME280;62287;50.858;0.252;2023-06-22T01:40:53;101704.29;;;20.58;40.12
73936;BME280;62287;50.858;0.252;2023-06-22T01:41:26;101705.10;;;20.64;40.03
73936;BME280;62287;50.858;0.252;2023-06-22T01:41:58;101707.10;;;21.09;40.14
73936;BME280;62287;50.858;0.252;2023-06-22T01:42:30;101707.60;;;20.52;40.27
73936;BME280;62287;50.858;0.252;2023-06-22T01:43:02;101707.20;;;20.53;40.24
73936;BME280;62287;50.858;0.252;2023-06-22T01:43:35;101709.30;;;20.75;40.46
73936;BME280;62287;50.858;0.252;2023-06-22T01:44:07;101709.70;;;20.91;40.63
73936;BME280;62287;50.858;0.252;2023-06-22T01:44:39;101709.76;;;20.89;40.61
73936;BME280;62287;50.858;0.252;2023-06-22T01:45:11;101711.53;;;20.69;40.51
73936;BME280;62287;50.858;0.252;2023-06-22T01:45:43;101710.24;;;20.81;40.59
73936;BME280;62287;50.858;0.252;2023-06-22T01:46:14;101708.43;;;20.12;40.50
73936;BME280;62287;50.858;0.252;2023-06-22T01:46:46;101708.50;;;20.50;40.56
73936;BME280;62287;50.858;0.252;2023-06-22T01:47:19;101707.66;;;19.92;40.57
73936;BME280;62287;50.858;0.252;2023-06-22T01:47:50;101711.03;;;20.90;40.54
73936;BME280;62287;50.858;0.252;2023-06-22T01:48:22;101709.39;;;20.04;40.44
73936;BME280;62287;50.858;0.252;2023-06-22T01:48:54;101708.39;;;20.58;40.67
73936;BME280;62287;50.858;0.252;2023-06-22T01:49:25;101708.69;;;19.87;40.60
73936;BME280;62287;50.858;0.252;2023-06-22T01:49:57;101708.31;;;20.05;40.73
73936;BME280;62287;50.858;0.252;2023-06-22T01:50:28;101703.80;;;20.68;40.60
73936;BME280;62287;50.858;0.252;2023-06-22T01:50:59;101703.98;;;20.43;40.38
73936;BME280;62287;50.858;0.252;2023-06-22T01:51:31;101703.59;;;20.30;40.53
73936;BME280;62287;50.858;0.252;2023-06-22T01:52:03;101702.67;;;19.81;40.54
73936;BME280;62287;50.858;0.252;2023-06-22T01:52:34;101700.09;;;19.89;40.63
73936;BME280;62287;50.858;0.252;2023-06-22T01:53:05;101700.56;;;20.52;40.53
73936;BME280;62287;50.858;0.252;2023-06-22T01:53:36;101702.57;;;20.23;40.53
73936;BME280;62287;50.858;0.252;2023-06-22T01:54:07;101700.37;;;20.01;40.79
73936;BME280;62287;50.858;0.252;2023-06-22T01:54:39;101700.81;;;20.51;40.94
73936;BME280;62287;50.858;0.252;2023-06-22T01:55:10;101697.64;;;20.19;40.62
73936;BME280;62287;50.858;0.252;2023-06-22T01:55:41;101694.48;;;20.58;40.61
73936;BME280;62287;50.858;0.252;2023-06-22T01:56:12;101695.58;;;20.54;40.76
73936;BME280;62287;50.858;0.252;2023-06-22T01:56:43;101697.61;;;20.34;40.87
73936;BME280;62287;50.858;0.252;2023-06-22T01:57:15;101696.65;;;19.63;40.78
73936;BME280;62287;50.858;0.252;2023-06-22T01:57:46;101694.06;;;19.96;40.79
73936;BME280;62287;50.858;0.252;2023-06-22T01:58:20;101693.88;;;20.28;40.93
73936;BME280;62287;50.858;0.252;2023-06-22T01:59:03;101690.26;;;20.55;40.78
73936;BME280;62287;50.858;0.252;2023-06-22T01:59:42;101692.26;;;20.43;40.35
73936;BME280;62287;50.858;0.252;2023-06-22T02:00:19;101691.96;;;20.22;40.44
73936;BME280;62287;50.858;0.252;2023-06-22T02:00:56;101692.65;;;20.25;40.31
73936;BME280;62287;50.858;0.252;2023-06-22T02:01:35;101696.93;;;20.42;40.71
73936;BME280;62287;50.858;0.252;2023-06-22T02:02:11;101697.78;;;20.01;40.53
73936;BME280;62287;50.858;0.252;2023-06-22T02:02:48;101696.82;;;19.80;40.45
73936;BME280;62287;50.858;0.252;2023-06-22T02:03:26;101696.42;;;20.77;40.24
73936;BME280;62287;50.858;0.252;2023-06-22T02:04:03;101697.49;;;20.14;40.40
73936;BME280;62287;50.858;0.252;2023-06-22T02:04:42;101699.03;;;20.46;40.36
73936;BME280;62287;50.858;0.252;2023-06-22T02:05:17;101696.69;;;20.41;40.34
73936;BME280;62287;50.858;0.252;2023-06-22T02:06:01;101696.86;;;19.60;40.29
73936;BME280;62287;50.858;0.252;2023-06-22T02:06:37;101699.13;;;20.35;40.06
73936;BME280;62287;50.858;0.252;2023-06-22T02:07:13;101699.39;;;20.46;39.99
73936;BME280;62287;50.858;0.252;2023-06-22T02:07:48;101696.89;;;20.39;39.82
73936;BME280;62287;50.858;0.252;2023-06-22T02:08:22;101695.12;;;19.91;40.08
73936;BME280;62287;50.858;0.252;2023-06-22T02:08:57;101694.61;;;20.20;40.17
73936;BME280;62287;50.858;0.252;2023-06-22T02:09:31;101694.90;;;20.24;40.13
73936;BME280;62287;50.858;0.252;2023-06-22T02:10:07;101696.91;;;19.93;39.98
73936;BME280;62287;50.858;0.252;2023-06-22T02:10:40;101695.98;;;19.40;40.10
73936;BME280;62287;50.858;0.252;2023-06-22T02:11:13;101694.93;;;19.78;39.94
73936;BME280;62287;50.858;0.252;2023-06-22T02:11:46;101698.36;;;19.66;39.91
73936;BME280;62287;50.858;0.252;2023-06-22T02:12:22;101696.55;;;20.35;39.76
73936;BME280;62287;50.858;0.252;2023-06-22T02:12:56;101696.05;;;20.46;39.66
73936;BME280;62287;50.858;0.252;2023-06-22T02:13:28;101694.47;;;19.99;39.95
73936;BME280;62287;50.858;0.252;2023-06-22T02:14:00;101692.56;;;20.43;39.83
73936;BME280;62287;50.858;0.252;2023-06-22T02:14:31;101691.18;;;19.66;39.86
73936;BME280;62287;50.858;0.252;2023-06-22T02:15:05;101690.84;;;20.30;39.90
73936;BME280;62287;50.858;0.252;2023-06-22T02:15:36;101688.98;;;20.34;39.96
73936;BME280;62287;50.858;0.252;2023-06-22T02:16:07;101683.77;;;20.07;39.93
73936;BME280;62287;50.858;0.252;2023-06-22T02:16:39;101682.57;;;20.30;40.05
73936;BME280;62287;50.858;0.252;2023-06-22T02:17:11;101683.47;;;19.93;39.95
73936;BME280;62287;50.858;0.252;2023-06-22T02:17:42;101680.43;;;20.22;39.71
73936;BME280;62287;50.858;0.252;2023-06-22T02:18:13;101679.88;;;20.03;40.08
73936;BME280;62287;50.858;0.252;2023-06-22T02:18:46;101679.85;;;19.67;40.35
73936;BME280;62287;50.858;0.252;2023-06-22T02:19:17;101677.49;;;20.03;40.13
73936;BME280;62287;50.858;0.252;2023-06-22T02:19:53;101677.65;;;20.06;40.01
73936;BME280;62287;50.858;0.252;2023-06-22T02:20:25;101675.75;;;19.97;39.86
73936;BME280;62287;50.858;0.252;2023-06-22T02:20:56;101676.55;;;19.95;40.19
73936;BME280;62287;50.858;0.252;2023-06-22T02:21:27;101676.95;;;19.54;40.31
73936;BME280;62287;50.858;0.252;2023-06-22T02:21:57;101675.56;;;19.93;40.35
73936;BME280;62287;50.858;0.252;2023-06-22T02:22:28;101675.19;;;19.42;40.43
73936;BME280;62287;50.858;0.252;2023-06-22T02:22:59;101671.93;;;19.66;40.20
73936;BME280;62287;50.858;0.252;2023-06-22T02:23:30;101672.29;;;19.67;40.27
73936;BME280;62287;50.858;0.252;2023-06-22T02:24:02;101673.59;;;19.72;40.23
73936;BME280;62287;50.858;0.252;2023-06-22T02:24:33;101671.54;;;19.63;40.27
73936;BME280;62287;50.858;0.252;2023-06-22T02:25:04;101674.02;;;19.78;40.30
73936;BME280;62287;50.858;0.252;2023-06-22T02:25:35;101675.13;;;19.76;40.19
73936;BME280;62287;50.858;0.252;2023-06-22T02:26:06;101674.80;;;19.78;40.26
73936;BME280;62287;50.858;0.252;2023-06-22T02:26:37;101676.23;;;19.82;40.03
73936;BME280;62287;50.858;0.252;2023-06-22T02:27:09;101675.34;;;19.66;40.26
73936;BME280;62287;50.858;0.252;2023-06-22T02:27:40;101674.31;;;19.81;40.19
73936;BME280;62287;50.858;0.252;2023-06-22T02:28:11;101673.74;;;20.03;40.23
73936;BME280;62287;50.858;0.252;2023-06-22T02:28:42;101676.04;;;20.53;40.27
73936;BME280;62287;50.858;0.252;2023-06-22T02:29:13;101674.52;;;19.61;40.19
73936;BME280;62287;50.858;0.252;2023-06-22T02:29:44;101672.87;;;19.67;40.36
73936;BME280;62287;50.858;0.252;2023-06-22T02:30:15;101671.67;;;19.61;40.32
73936;BME280;62287;50.858;0.252;2023-06-22T02:30:46;101672.22;;;19.68;40.42
73936;BME280;62287;50.858;0.252;2023-06-22T02:31:17;101672.05;;;19.69;40.24
73936;BME280;62287;50.858;0.252;2023-06-22T02:31:48;101672.15;;;19.77;40.29
73936;BME280;62287;50.858;0.252;2023-06-22T02:32:18;101673.00;;;19.80;40.07
73936;BME280;62287;50.858;0.252;2023-06-22T02:32:49;101671.61;;;20.13;40.13
73936;BME280;62287;50.858;0.252;2023-06-22T02:33:20;101669.27;;;19.63;40.18
73936;BME280;62287;50.858;0.252;2023-06-22T02:33:51;101669.86;;;19.56;40.31
73936;BME280;62287;50.858;0.252;2023-06-22T02:34:22;101669.98;;;19.56;40.45
73936;BME280;62287;50.858;0.252;2023-06-22T02:34:53;101668.87;;;19.52;40.35
73936;BME280;62287;50.858;0.252;2023-06-22T02:35:24;101668.25;;;19.48;40.27
73936;BME280;62287;50.858;0.252;2023-06-22T02:35:55;101670.04;;;19.50;40.49
73936;BME280;62287;50.858;0.252;2023-06-22T02:36:26;101668.60;;;19.52;40.56
73936;BME280;62287;50.858;0.252;2023-06-22T02:36:57;101669.90;;;19.86;40.55
73936;BME280;62287;50.858;0.252;2023-06-22T02:37:28;101671.76;;;19.51;40.57
73936;BME280;62287;50.858;0.252;2023-06-22T02:38:00;101671.35;;;19.58;40.32
73936;BME280;62287;50.858;0.252;2023-06-22T02:38:31;101669.87;;;19.50;40.44
73936;BME280;62287;50.858;0.252;2023-06-22T02:39:02;101671.89;;;19.50;40.48
73936;BME280;62287;50.858;0.252;2023-06-22T02:39:33;101671.59;;;19.52;40.40
73936;BME280;62287;50.858;0.252;2023-06-22T02:40:05;101674.50;;;19.36;40.48
73936;BME280;62287;50.858;0.252;2023-06-22T02:40:36;101674.41;;;19.56;40.81
73936;BME280;62287;50.858;0.252;2023-06-22T02:41:07;101674.13;;;19.59;40.61
73936;BME280;62287;50.858;0.252;2023-06-22T02:41:38;101672.97;;;19.39;40.62
73936;BME280;62287;50.858;0.252;2023-06-22T02:42:09;101672.23;;;19.64;40.64
73936;BME280;62287;50.858;0.252;2023-06-22T02:42:40;101673.61;;;19.22;40.60
73936;BME280;62287;50.858;0.252;2023-06-22T02:43:11;101674.13;;;19.05;40.78
73936;BME280;62287;50.858;0.252;2023-06-22T02:43:42;101672.71;;;19.56;40.78
73936;BME280;62287;50.858;0.252;2023-06-22T02:44:13;101672.18;;;19.18;40.74
73936;BME280;62287;50.858;0.252;2023-06-22T02:44:44;101671.61;;;19.35;40.81
73936;BME280;62287;50.858;0.252;2023-06-22T02:45:15;101672.01;;;19.45;40.67
73936;BME280;62287;50.858;0.252;2023-06-22T02:45:45;101672.45;;;19.42;40.49
73936;BME280;62287;50.858;0.252;2023-06-22T02:46:17;101671.50;;;19.30;40.53
73936;BME280;62287;50.858;0.252;2023-06-22T02:46:48;101673.47;;;19.91;40.74
73936;BME280;62287;50.858;0.252;2023-06-22T02:47:19;101673.81;;;19.49;40.68
73936;BME280;62287;50.858;0.252;2023-06-22T02:47:50;101674.26;;;19.28;40.52
73936;BME280;62287;50.858;0.252;2023-06-22T02:48:21;101676.74;;;18.98;40.42
73936;BME280;62287;50.858;0.252;2023-06-22T02:48:52;101678.69;;;19.22;40.41
73936;BME280;62287;50.858;0.252;2023-06-22T02:49:24;101682.62;;;18.94;40.37
73936;BME280;62287;50.858;0.252;2023-06-22T02:49:55;101684.51;;;18.90;40.38
73936;BME280;62287;50.858;0.252;2023-06-22T02:50:26;101686.21;;;19.13;40.69